Time;durP1;ratioP1;P1;durP2;ratioP2;P2;SDS_P1;SDS_P2;PMS_P1;PMS_P2;Temp;Humidity;BMP_temperature;BMP_pressure;BME280_temperature;BME280_humidity;BME280_pressure;Samples;Min_cycle;Max_cycle;Signal;HPM_P1;HPM_P2
2023/12/06 00:01:19;;;;;;;15.32;7.57;;;;;;;-4.92;61.40;100693.69;6083467;23;20019;-85
2023/12/06 00:03:46;;;;;;;16.50;7.60;;;;;;;-5.17;61.35;100648.53;6059226;23;20523;-86
2023/12/06 00:06:18;;;;;;;18.92;7.90;;;;;;;-5.13;61.05;100662.31;6106548;23;20018;-87
2023/12/06 00:08:45;;;;;;;21.17;8.38;;;;;;;-5.31;60.34;100625.31;6058129;23;20078;-87
2023/12/06 00:11:11;;;;;;;18.08;7.57;;;;;;;-4.96;60.40;100685.22;6081317;23;20023;-86
2023/12/06 00:13:37;;;;;;;13.90;6.47;;;;;;;-5.02;59.80;100689.41;6106879;23;20504;-88
2023/12/06 00:16:04;;;;;;;14.77;7.53;;;;;;;-5.20;60.33;100670.19;6107362;23;20022;-87
2023/12/06 00:18:55;;;;;;;20.00;7.45;;;;;;;-4.97;59.91;100704.88;6132825;23;20017;-85
2023/12/06 00:21:21;;;;;;;17.10;7.13;;;;;;;-5.02;60.42;100713.41;6202466;23;20017;-84
2023/12/06 00:23:47;;;;;;;17.25;8.10;;;;;;;-5.14;60.39;100701.50;6153199;23;20046;-86
2023/12/06 00:26:14;;;;;;;18.92;7.95;;;;;;;-5.60;60.35;100632.13;6177837;23;20020;-85
2023/12/06 00:28:40;;;;;;;20.42;8.15;;;;;;;-5.39;59.91;100663.50;6202597;23;20040;-85
2023/12/06 00:31:11;;;;;;;20.02;8.60;;;;;;;-5.45;60.29;100645.56;6227646;23;20046;-85
2023/12/06 00:33:38;;;;;;;20.10;8.35;;;;;;;-5.28;60.09;100688.91;6177888;23;20055;-85
2023/12/06 00:36:04;;;;;;;18.40;7.75;;;;;;;-5.18;59.67;100718.03;6203588;23;20016;-90
2023/12/06 00:38:31;;;;;;;20.08;8.15;;;;;;;-5.76;59.78;100643.72;6202910;23;20052;-87
2023/12/06 00:41:00;;;;;;;17.00;7.80;;;;;;;-5.79;59.63;100656.56;6229851;23;20027;-87
2023/12/06 00:43:29;;;;;;;16.55;7.32;;;;;;;-5.71;59.43;100683.97;6177771;23;20028;-86
2023/12/06 00:45:55;;;;;;;17.88;8.07;;;;;;;-5.95;60.20;100660.97;6229098;23;20012;-86
2023/12/06 00:48:22;;;;;;;18.00;8.18;;;;;;;-6.21;59.84;100629.28;6202433;23;20075;-86
2023/12/06 00:50:54;;;;;;;19.05;7.40;;;;;;;-5.77;59.73;100726.44;6228923;23;20028;-87
2023/12/06 00:53:20;;;;;;;22.63;8.40;;;;;;;-6.28;60.06;100654.94;6202827;23;20072;-89
2023/12/06 00:55:57;;;;;;;25.02;9.80;;;;;;;-6.39;60.30;100633.97;6178068;23;20017;-86
2023/12/06 00:58:27;;;;;;;23.42;9.07;;;;;;;-6.07;60.00;100699.59;6235907;23;20024;-87
2023/12/06 01:01:19;;;;;;;28.00;10.25;;;;;;;-5.99;59.22;100720.91;6208589;23;20045;-85
2023/12/06 01:03:46;;;;;;;19.23;9.45;;;;;;;-6.57;59.74;100650.16;6205809;23;20045;-86
2023/12/06 01:06:12;;;;;;;27.85;11.23;;;;;;;-6.64;60.39;100644.69;6235326;23;20094;-85
2023/12/06 01:08:38;;;;;;;23.17;10.07;;;;;;;-6.54;60.57;100662.28;6211266;23;20016;-85
2023/12/06 01:11:07;;;;;;;23.95;9.60;;;;;;;-6.32;60.80;100703.31;6233836;23;20012;-87
2023/12/06 01:13:37;;;;;;;26.95;9.80;;;;;;;-6.32;61.07;100711.28;6235302;23;20051;-85
2023/12/06 01:16:03;;;;;;;29.17;10.93;;;;;;;-6.30;61.11;100720.78;6210897;23;20377;-86
2023/12/06 01:18:29;;;;;;;21.75;10.75;;;;;;;-6.49;61.69;100690.06;6233382;23;20047;-85
2023/12/06 01:20:55;;;;;;;19.38;8.85;;;;;;;-6.25;61.60;100731.75;6233779;23;20073;-87
2023/12/06 01:23:21;;;;;;;26.25;10.75;;;;;;;-6.66;62.57;100673.25;6209501;23;20020;-87
2023/12/06 01:26:16;;;;;;;26.05;10.98;;;;;;;-6.33;63.26;100725.59;6233337;23;20016;-84
2023/12/06 01:28:42;;;;;;;25.75;10.10;;;;;;;-6.82;61.87;100652.03;6234112;23;20019;-85
2023/12/06 01:31:08;;;;;;;25.33;9.90;;;;;;;-6.68;62.42;100685.09;6234596;23;20020;-87
2023/12/06 01:33:34;;;;;;;21.77;9.77;;;;;;;-6.88;62.87;100650.03;6207366;23;20074;-87
2023/12/06 01:36:00;;;;;;;35.40;11.93;;;;;;;-6.82;63.35;100669.78;6207055;23;20016;-86
2023/12/06 01:38:27;;;;;;;25.35;11.38;;;;;;;-6.78;62.64;100674.63;6258988;23;20027;-85
2023/12/06 01:40:53;;;;;;;23.70;10.48;;;;;;;-6.76;62.95;100671.78;6258880;23;20020;-86
2023/12/06 01:43:28;;;;;;;28.10;11.52;;;;;;;-7.16;62.50;100615.78;6259159;23;20020;-88
2023/12/06 01:45:55;;;;;;;20.27;9.05;;;;;;;-6.74;62.45;100697.22;6259074;23;20020;-87
2023/12/06 01:48:23;;;;;;;29.80;10.50;;;;;;;-6.94;61.67;100688.72;6209397;23;20016;-87
2023/12/06 01:50:50;;;;;;;31.55;11.35;;;;;;;-6.75;61.98;100727.47;6207200;23;20362;-86
2023/12/06 01:53:16;;;;;;;20.88;8.90;;;;;;;-6.80;60.71;100726.28;6232893;23;20023;-85
2023/12/06 01:55:47;;;;;;;31.95;11.95;;;;;;;-6.96;60.11;100730.56;6258763;23;20020;-84
2023/12/06 01:58:13;;;;;;;42.10;15.80;;;;;;;-7.35;61.01;100687.81;6176262;23;20455;-89
2023/12/06 02:00:45;;;;;;;43.43;16.03;;;;;;;-7.28;61.68;100693.31;6166158;23;20096;-86
2023/12/06 02:03:13;;;;;;;53.72;21.88;;;;;;;-7.45;60.07;100684.47;6116586;23;20068;-85
2023/12/06 02:05:39;;;;;;;48.42;18.80;;;;;;;-7.91;59.16;100617.63;6139787;23;20040;-86
2023/12/06 02:08:05;;;;;;;36.20;13.63;;;;;;;-7.49;59.64;100701.75;6166632;23;20009;-86
2023/12/06 02:10:31;;;;;;;33.75;12.25;;;;;;;-7.95;59.81;100650.81;6165428;23;20017;-86
2023/12/06 02:12:59;;;;;;;26.13;11.02;;;;;;;-7.70;59.82;100699.53;6115475;23;20459;-84
2023/12/06 02:15:25;;;;;;;27.15;10.88;;;;;;;-7.76;59.27;100693.03;6140749;23;20025;-85
2023/12/06 02:17:52;;;;;;;28.80;12.55;;;;;;;-7.96;59.35;100659.75;6139878;23;20017;-86
2023/12/06 02:20:18;;;;;;;34.70;12.85;;;;;;;-7.93;60.20;100652.31;6140038;23;20013;-86
2023/12/06 02:22:44;;;;;;;52.90;17.37;;;;;;;-7.66;61.60;100669.00;6140594;23;20032;-86
2023/12/06 02:25:15;;;;;;;69.00;24.95;;;;;;;-7.07;62.04;100741.53;6118811;23;20317;-87
2023/12/06 02:27:45;;;;;;;65.22;22.38;;;;;;;-7.44;61.85;100670.22;6119213;23;20069;-86
2023/12/06 02:30:12;;;;;;;46.15;17.73;;;;;;;-7.05;62.62;100726.28;6169108;23;20017;-87
2023/12/06 02:32:38;;;;;;;56.67;18.70;;;;;;;-7.25;61.91;100667.28;6175791;23;20024;-86
2023/12/06 02:36:02;;;;;;;45.78;17.42;;;;;;;-6.75;62.19;100738.09;6179861;23;20021;-85
2023/12/06 02:38:29;;;;;;;34.97;12.85;;;;;;;-7.66;63.59;100634.47;6175242;23;20020;-84
2023/12/06 02:40:58;;;;;;;29.33;11.32;;;;;;;-7.25;64.20;100746.13;6204453;23;20075;-85
2023/12/06 02:43:24;;;;;;;26.38;11.00;;;;;;;-7.69;64.66;100709.13;6179467;23;20404;-85
2023/12/06 02:45:50;;;;;;;29.27;12.00;;;;;;;-7.69;64.90;100709.97;6229608;23;20024;-86
2023/12/06 02:48:16;;;;;;;26.07;11.57;;;;;;;-7.60;64.76;100709.00;6176710;23;20032;-85
2023/12/06 02:50:43;;;;;;;35.27;12.60;;;;;;;-7.62;64.97;100692.41;6177804;23;20040;-86
2023/12/06 02:53:09;;;;;;;34.53;13.25;;;;;;;-7.33;64.05;100723.88;6227475;23;20020;-85
2023/12/06 02:55:37;;;;;;;31.60;12.20;;;;;;;-7.16;63.48;100753.97;6201479;23;20016;-85
2023/12/06 02:58:03;;;;;;;30.35;12.10;;;;;;;-7.82;63.75;100673.25;6259851;23;20020;-86
2023/12/06 03:00:29;;;;;;;31.60;12.65;;;;;;;-7.45;64.67;100740.25;6209053;23;20043;-86
2023/12/06 03:03:01;;;;;;;32.28;12.65;;;;;;;-7.25;64.75;100767.38;6212745;23;20020;-85
2023/12/06 03:05:27;;;;;;;29.40;11.52;;;;;;;-7.49;64.92;100689.28;6187125;23;20023;-86
2023/12/06 03:07:53;;;;;;;34.70;13.07;;;;;;;-6.93;64.45;100762.16;6212998;23;20023;-87
2023/12/06 03:10:22;;;;;;;28.65;11.98;;;;;;;-7.57;64.50;100650.28;6188805;23;20077;-89
2023/12/06 03:12:49;;;;;;;32.15;12.93;;;;;;;-7.35;64.65;100698.44;6213235;23;20050;-86
2023/12/06 03:15:17;;;;;;;30.10;12.02;;;;;;;-7.08;65.12;100723.94;6190314;23;20023;-86
2023/12/06 03:17:52;;;;;;;26.63;11.27;;;;;;;-7.01;64.31;100686.91;6214333;23;20012;-86
2023/12/06 03:20:18;;;;;;;33.08;13.07;;;;;;;-6.84;63.64;100706.34;6262487;23;20020;-87
2023/12/06 03:22:45;;;;;;;29.15;12.05;;;;;;;-6.95;63.54;100692.41;6238667;23;20072;-86
2023/12/06 03:25:11;;;;;;;33.17;12.18;;;;;;;-6.77;63.26;100697.53;6239079;23;19992;-86
2023/12/06 03:27:38;;;;;;;28.73;13.27;;;;;;;-6.26;62.93;100777.16;6214269;23;20036;-87
2023/12/06 03:30:07;;;;;;;29.42;11.90;;;;;;;-6.47;62.56;100753.72;6241382;23;20016;-86
2023/12/06 03:32:34;;;;;;;28.20;13.32;;;;;;;-6.36;62.79;100779.97;6238739;23;20035;-87
2023/12/06 03:35:01;;;;;;;26.13;12.20;;;;;;;-6.65;61.79;100738.75;6165362;23;20093;-87
2023/12/06 03:37:30;;;;;;;30.80;11.80;;;;;;;-6.73;60.04;100744.06;6191830;23;20016;-87
2023/12/06 03:39:56;;;;;;;;;;;;;;;-6.54;60.71;100788.13;6214940;23;20016;-85
2023/12/06 03:42:22;;;;;;;32.10;12.40;;;;;;;-7.18;61.15;100694.03;6238952;23;19912;-88
2023/12/06 03:44:48;;;;;;;29.52;11.38;;;;;;;-7.05;61.92;100733.38;6187796;23;20070;-87
2023/12/06 03:47:16;;;;;;;34.47;13.55;;;;;;;-6.64;61.37;100801.59;6238557;23;20453;-85
2023/12/06 03:49:42;;;;;;;27.65;12.05;;;;;;;-6.91;60.58;100765.50;6238545;23;20072;-88
2023/12/06 03:52:09;;;;;;;31.10;12.63;;;;;;;-7.11;60.48;100722.44;6264827;23;20023;-86
2023/12/06 03:54:36;;;;;;;28.55;12.60;;;;;;;-7.25;60.50;100706.28;6270279;22;20015;-86
2023/12/06 03:57:02;;;;;;;32.90;11.40;;;;;;;-6.57;60.44;100814.22;6232752;23;20016;-87
2023/12/06 03:59:28;;;;;;;28.95;11.40;;;;;;;-6.71;60.91;100795.28;6185634;23;20291;-87
2023/12/06 04:01:54;;;;;;;30.00;12.00;;;;;;;-6.91;60.74;100789.41;6210815;23;20017;-88
2023/12/06 04:04:21;;;;;;;35.85;13.25;;;;;;;-7.14;61.16;100751.97;6173409;23;20026;-86
2023/12/06 04:06:50;;;;;;;27.88;13.38;;;;;;;-7.11;61.11;100748.19;6101210;23;20026;-87
2023/12/06 04:09:16;;;;;;;30.67;11.57;;;;;;;-6.93;61.10;100759.50;6150305;23;20017;-87
2023/12/06 04:11:49;;;;;;;30.77;13.05;;;;;;;-6.49;61.38;100832.84;6152577;23;20017;-88
2023/12/06 04:14:17;;;;;;;27.45;13.45;;;;;;;-6.93;60.91;100743.53;6151522;23;20040;-87
2023/12/06 04:16:46;;;;;;;32.38;14.10;;;;;;;-6.42;60.91;100810.78;6103338;23;20024;-89
2023/12/06 04:19:18;;;;;;;23.77;11.48;;;;;;;-6.22;61.18;100837.88;6128306;23;20049;-88
2023/12/06 04:21:46;;;;;;;25.25;12.30;;;;;;;-6.58;61.07;100770.84;6124295;23;20008;-88
2023/12/06 04:24:18;;;;;;;43.08;12.93;;;;;;;-6.45;60.78;100787.16;6124452;23;20033;-88
2023/12/06 04:26:45;;;;;;;33.78;13.30;;;;;;;-6.54;61.05;100782.81;6149718;23;20036;-87
2023/12/06 04:41:24;;;;;;;37.85;14.27;;;;;;;-5.96;61.68;100828.88;6255451;22;20027;-88
2023/12/06 04:44:04;;;;;;;38.63;14.93;;;;;;;-6.04;62.79;100869.66;6169742;23;20028;-91
2023/12/06 04:46:41;;;;;;;27.85;13.55;;;;;;;-6.12;62.88;100868.81;6222905;23;20019;-88
2023/12/06 04:49:12;;;;;;;33.95;14.13;;;;;;;-6.34;62.75;100825.06;6197867;23;20042;-89
2023/12/06 04:51:39;;;;;;;44.95;16.25;;;;;;;-6.09;62.53;100850.69;6218624;23;20019;-87
2023/12/06 04:54:06;;;;;;;38.63;15.10;;;;;;;-5.97;62.89;100857.31;6220200;23;20047;-89
2023/12/06 04:56:34;;;;;;;34.45;15.25;;;;;;;-6.07;62.24;100819.41;6244595;23;20539;-90
2023/12/06 04:59:01;;;;;;;41.65;15.05;;;;;;;-5.60;61.99;100873.75;6243768;23;20016;-86
2023/12/06 05:01:43;;;;;;;;;;;;;;;-5.57;61.37;100884.06;6202621;23;20000;-86
2023/12/06 05:04:11;;;;;;;36.83;15.77;;;;;;;-5.85;61.35;100864.97;6243546;23;19919;-89
2023/12/06 05:06:42;;;;;;;43.03;15.77;;;;;;;-5.68;61.74;100886.06;6219604;23;20001;-87
2023/12/06 05:09:08;;;;;;;40.88;16.70;;;;;;;-5.92;61.91;100856.81;6194338;23;20020;-90
2023/12/06 05:12:00;;;;;;;46.05;18.52;;;;;;;-5.66;62.29;100883.25;6247051;23;20007;-89
2023/12/06 05:15:01;;;;;;;45.70;17.50;;;;;;;-5.88;62.35;100846.66;6254505;22;20016;-89
2023/12/06 05:21:47;;;;;;;39.38;17.20;;;;;;;-5.48;61.84;100897.19;6283915;22;20032;-87
2023/12/06 05:24:53;;;;;;;30.83;15.43;;;;;;;-5.46;61.18;100897.88;6199669;22;20019;-88
2023/12/06 05:27:28;;;;;;;43.95;17.67;;;;;;;-5.39;60.75;100897.19;6203094;22;20059;-89
2023/12/06 05:33:24;;;;;;;34.45;15.43;;;;;;;-5.35;60.23;100918.00;6210272;23;20029;-89
2023/12/06 05:44:11;;;;;;;36.90;16.27;;;;;;;-5.19;60.37;100909.13;6267232;22;20050;-89
2023/12/06 05:52:29;;;;;;;41.08;14.93;;;;;;;-5.60;60.25;100850.59;6223666;22;20004;-87
2023/12/06 05:54:56;;;;;;;38.22;14.50;;;;;;;-5.26;60.19;100914.31;6244543;23;20012;-87
2023/12/06 05:57:23;;;;;;;35.65;16.80;;;;;;;-5.81;60.08;100842.31;6214737;23;20027;-86
2023/12/06 06:02:39;;;;;;;47.15;15.95;;;;;;;-5.59;59.54;100875.44;6265889;22;19915;-87
2023/12/06 06:14:42;;;;;;;39.03;15.57;;;;;;;-5.23;59.80;100939.81;6267388;22;20028;-86
2023/12/06 06:17:08;;;;;;;56.58;17.25;;;;;;;-5.64;58.73;100851.94;6241379;23;20020;-86
2023/12/06 06:20:12;;;;;;;40.50;16.48;;;;;;;-5.22;58.42;100933.47;6246888;23;20024;-87
2023/12/06 06:22:39;;;;;;;41.00;16.88;;;;;;;-5.59;58.81;100916.22;6214848;23;20020;-90
2023/12/06 06:25:09;;;;;;;36.40;16.75;;;;;;;-5.76;59.12;100947.34;6167890;23;20060;-87
2023/12/06 06:27:36;;;;;;;49.92;19.85;;;;;;;-6.04;59.49;100906.91;6193520;23;20027;-88
2023/12/06 06:30:25;;;;;;;46.53;19.75;;;;;;;-5.97;59.66;100913.25;6244762;23;20007;-88
2023/12/06 06:33:50;;;;;;;44.65;17.60;;;;;;;-5.94;59.03;100918.25;6270450;23;20034;-88
2023/12/06 06:36:18;;;;;;;46.88;16.88;;;;;;;-5.64;59.28;100952.34;6193267;23;20020;-89
2023/12/06 06:39:56;;;;;;;42.60;17.48;;;;;;;-5.56;59.12;100953.19;6220134;23;20012;-89
2023/12/06 06:46:21;;;;;;;42.03;18.17;;;;;;;-6.47;59.47;100844.16;6127492;23;20056;-89
2023/12/06 06:49:10;;;;;;;56.22;19.60;;;;;;;-6.00;59.22;100916.22;6099446;23;20046;-90
2023/12/06 06:51:38;;;;;;;49.67;17.20;;;;;;;-5.73;59.55;100960.34;6098429;23;20026;-89
2023/12/06 06:54:14;;;;;;;46.30;18.42;;;;;;;-5.84;59.20;100925.19;6124752;23;20017;-90
2023/12/06 06:56:42;;;;;;;43.15;18.40;;;;;;;-5.90;59.33;100878.75;6076018;23;20105;-88
2023/12/06 06:59:09;;;;;;;46.45;16.48;;;;;;;-5.59;59.54;100937.53;6122825;23;20018;-87
2023/12/06 07:02:03;;;;;;;47.83;16.55;;;;;;;-5.35;60.53;100959.81;6120779;23;20022;-87
2023/12/06 07:04:29;;;;;;;34.17;15.90;;;;;;;-5.70;60.05;100892.56;6094821;23;20013;-87
2023/12/06 07:06:57;;;;;;;43.67;15.88;;;;;;;-5.72;60.47;100908.72;6096095;23;20025;-86
2023/12/06 07:09:24;;;;;;;35.60;14.40;;;;;;;-5.35;60.74;100942.00;6117352;23;20073;-88
2023/12/06 07:11:50;;;;;;;42.53;16.02;;;;;;;-5.70;60.73;100898.72;6115080;23;20002;-86
2023/12/06 07:17:11;;;;;;;34.72;14.07;;;;;;;-5.25;60.82;100923.16;6112855;23;20101;-85
2023/12/06 07:19:37;;;;;;;45.03;16.92;;;;;;;-5.24;59.81;100916.81;6115222;23;19998;-89
2023/12/06 07:22:17;;;;;;;42.65;16.23;;;;;;;-4.83;59.31;100975.38;6058080;23;20016;-88
2023/12/06 07:24:45;;;;;;;48.40;18.70;;;;;;;-4.95;59.12;100961.56;6214012;23;20016;-88
2023/12/06 07:27:12;;;;;;;41.60;15.85;;;;;;;-5.06;59.08;100930.75;6214646;23;20017;-86
2023/12/06 07:29:38;;;;;;;34.90;16.02;;;;;;;-5.24;58.96;100909.63;6189674;23;20023;-87
2023/12/06 07:32:18;;;;;;;38.33;16.73;;;;;;;-5.50;59.01;100861.88;6215225;23;20021;-87
2023/12/06 07:34:47;;;;;;;41.67;15.82;;;;;;;-4.63;58.85;100987.31;6216783;22;20506;-87
2023/12/06 07:37:20;;;;;;;37.65;17.25;;;;;;;-4.75;58.87;100951.31;6192238;23;20012;-87
2023/12/06 07:40:11;;;;;;;45.78;18.02;;;;;;;-4.95;58.72;100908.22;6215722;23;20017;-89
2023/12/06 07:42:42;;;;;;;43.63;15.27;;;;;;;-4.32;58.40;100991.84;6237912;23;20019;-87
2023/12/06 07:45:24;;;;;;;41.72;16.10;;;;;;;-4.95;58.30;100868.22;6212726;23;20031;-87
2023/12/06 07:47:58;;;;;;;35.25;14.13;;;;;;;-4.10;58.40;101000.91;6144324;23;20020;-89
2023/12/06 07:54:02;;;;;;;38.05;17.25;;;;;;;-4.26;57.85;100948.44;6234862;23;20032;-88
2023/12/06 07:56:28;;;;;;;43.80;16.35;;;;;;;-4.44;57.67;100921.16;6179269;23;20021;-89
2023/12/06 07:59:02;;;;;;;43.70;16.75;;;;;;;-3.99;57.46;101007.69;6179229;23;20012;-90
2023/12/06 08:01:54;;;;;;;41.13;18.02;;;;;;;-4.96;57.99;100863.91;6202304;23;20017;-86
2023/12/06 08:04:26;;;;;;;42.50;17.10;;;;;;;-4.45;57.94;100927.50;6069942;23;20029;-91
2023/12/06 08:06:57;;;;;;;41.25;14.98;;;;;;;-4.44;58.75;100921.16;6092705;23;20122;-91
2023/12/06 08:09:30;;;;;;;46.33;17.65;;;;;;;-4.36;57.81;100953.16;6068121;23;20034;-88
2023/12/06 08:11:57;;;;;;;58.72;26.67;;;;;;;-4.14;57.93;100980.88;6067351;23;20062;-86
2023/12/06 08:14:39;;;;;;;53.72;22.25;;;;;;;-4.14;57.23;100975.53;6093659;23;20014;-88
2023/12/06 08:17:31;;;;;;;59.35;23.80;;;;;;;-4.28;56.92;100926.41;6116521;23;20057;-88
2023/12/06 08:19:58;;;;;;;68.53;24.13;;;;;;;-4.18;56.39;100948.38;6091986;23;20029;-87
2023/12/06 08:22:26;;;;;;;26.98;11.27;;;;;;;-4.32;55.85;100965.97;6111719;23;20053;-87
2023/12/06 08:24:57;;;;;;;33.35;10.13;;;;;;;-4.23;55.61;100989.97;6089331;23;20039;-89
2023/12/06 08:27:27;;;;;;;21.77;9.77;;;;;;;-4.55;55.70;100959.75;6037808;23;20018;-86
2023/12/06 08:30:08;;;;;;;19.52;8.65;;;;;;;-4.27;55.75;100998.34;6144798;23;20006;-88
2023/12/06 08:32:54;;;;;;;22.08;8.07;;;;;;;-4.37;55.90;100967.50;6073934;23;20073;-86
2023/12/06 08:35:34;;;;;;;18.33;7.75;;;;;;;-4.02;55.46;101006.19;6120376;23;20022;-88
2023/12/06 08:38:14;;;;;;;17.42;7.72;;;;;;;-4.34;55.20;100975.16;6097955;23;20018;-88
2023/12/06 08:40:40;;;;;;;24.65;8.95;;;;;;;-4.02;55.14;101023.06;6111293;23;20099;-86
2023/12/06 08:43:14;;;;;;;17.00;7.65;;;;;;;-4.70;54.85;100916.13;6182315;23;20025;-88
2023/12/06 08:46:03;;;;;;;22.77;8.45;;;;;;;-4.58;54.40;100944.09;6203978;23;20048;-89
2023/12/06 08:49:18;;;;;;;26.15;10.40;;;;;;;-4.30;54.53;101032.56;6210810;23;20013;-88
2023/12/06 08:52:10;;;;;;;22.08;8.60;;;;;;;-4.38;54.24;100995.22;6169129;23;20036;-88
2023/12/06 08:54:56;;;;;;;13.27;6.40;;;;;;;-4.46;54.08;100977.41;6148979;23;20022;-90
2023/12/06 08:58:08;;;;;;;12.95;5.57;;;;;;;-4.84;53.90;100899.00;6124489;23;20018;-90
2023/12/06 09:00:37;;;;;;;11.18;5.25;;;;;;;-4.67;53.93;100899.75;6092863;23;20038;-89
2023/12/06 09:03:43;;;;;;;13.27;5.47;;;;;;;-4.58;53.36;100914.72;6094623;23;20010;-89
2023/12/06 09:06:34;;;;;;;10.70;4.90;;;;;;;-4.46;53.66;100940.03;6119818;23;20023;-87
2023/12/06 09:09:04;;;;;;;10.50;5.18;;;;;;;-3.88;53.44;101002.75;6118015;23;20059;-88
2023/12/06 09:12:03;;;;;;;12.02;5.40;;;;;;;-4.44;53.38;100931.84;6099135;23;20010;-92
2023/12/06 09:20:59;;;;;;;13.93;6.38;;;;;;;-4.21;53.94;101001.28;6233134;22;20076;-89
2023/12/06 09:23:27;;;;;;;14.07;5.78;;;;;;;-4.44;53.79;100961.19;6190260;23;20084;-86
2023/12/06 09:26:13;;;;;;;13.38;6.10;;;;;;;-3.96;53.60;101010.84;6140504;23;20021;-89
2023/12/06 09:29:12;;;;;;;14.30;5.38;;;;;;;-3.89;53.75;101008.28;6240260;23;20016;-87
2023/12/06 09:32:13;;;;;;;17.15;5.90;;;;;;;-3.87;53.19;101015.13;6195877;23;20025;-90
2023/12/06 09:35:01;;;;;;;10.33;5.50;;;;;;;-4.65;53.70;100911.09;6200466;23;20012;-88
2023/12/06 09:40:35;;;;;;;13.68;6.43;;;;;;;-4.10;52.82;100982.22;6268494;23;20385;-88
2023/12/06 09:43:39;;;;;;;11.55;6.10;;;;;;;-4.53;52.95;100899.88;6246186;22;20024;-90
2023/12/06 09:46:06;;;;;;;21.30;7.97;;;;;;;-4.11;52.91;100968.00;6159405;23;20013;-88
2023/12/06 09:49:13;;;;;;;18.13;7.13;;;;;;;-4.54;52.82;100890.16;6184366;23;20005;-88
2023/12/06 09:51:47;;;;;;;16.58;7.53;;;;;;;-4.14;52.68;100938.16;6095934;23;20098;-88
2023/12/06 10:03:53;;;;;;;19.73;8.55;;;;;;;-3.40;52.13;100981.22;6241360;22;20009;-88
2023/12/06 10:07:11;;;;;;;14.93;7.38;;;;;;;-3.23;51.96;101022.00;6190899;23;20016;-92
2023/12/06 10:13:17;;;;;;;13.87;6.90;;;;;;;-3.59;52.48;101025.28;6224365;22;20829;-88
2023/12/06 10:19:37;;;;;;;12.00;6.43;;;;;;;-3.82;52.60;100955.81;6299313;22;19963;-89
2023/12/06 10:22:42;;;;;;;13.18;6.15;;;;;;;-3.19;51.85;101026.81;6245722;22;20020;-90
2023/12/06 10:25:09;;;;;;;16.85;7.90;;;;;;;-3.58;51.63;100950.25;6221752;23;20020;-89
2023/12/06 10:31:03;;;;;;;32.67;10.73;;;;;;;-2.89;51.31;101033.03;6266227;22;20051;-88
2023/12/06 10:33:52;;;;;;;23.52;10.02;;;;;;;-3.29;52.02;100977.25;6176319;23;20031;-87
2023/12/06 10:36:31;;;;;;;25.25;11.27;;;;;;;-3.38;51.75;100934.56;6194353;23;20020;-90
2023/12/06 10:39:20;;;;;;;20.42;10.07;;;;;;;-2.82;51.71;100995.66;6224036;22;20004;-87
2023/12/06 10:41:55;;;;;;;20.33;9.98;;;;;;;-3.52;51.33;100924.66;6244200;23;20080;-89
2023/12/06 10:44:34;;;;;;;20.55;10.05;;;;;;;-3.28;52.08;100985.09;6244532;23;20011;-89
2023/12/06 10:47:04;;;;;;;17.85;8.63;;;;;;;-3.52;52.02;100950.56;6217422;23;20023;-90
2023/12/06 10:49:56;;;;;;;20.80;7.97;;;;;;;-2.82;52.24;101054.56;6185577;23;20024;-86
2023/12/06 10:52:24;;;;;;;22.25;8.50;;;;;;;-2.77;52.32;101046.00;6217840;23;20087;-88
2023/12/06 10:54:58;;;;;;;16.23;7.80;;;;;;;-2.65;52.71;101052.53;6265935;23;20013;-86
2023/12/06 10:57:37;;;;;;;25.05;8.02;;;;;;;-3.09;52.15;100962.34;6265355;23;20019;-88
2023/12/06 11:02:55;;;;;;;15.98;7.53;;;;;;;-2.36;52.02;101052.53;6237289;22;20024;-89
2023/12/06 11:05:26;;;;;;;20.98;8.73;;;;;;;-2.43;52.06;101042.75;6210435;23;20027;-88
2023/12/06 11:08:19;;;;;;;19.23;7.80;;;;;;;-2.48;52.48;101047.88;6215370;23;20015;-87
2023/12/06 11:11:13;;;;;;;18.10;8.10;;;;;;;-2.54;52.45;101054.78;6215419;23;20087;-88
2023/12/06 11:17:30;;;;;;;25.15;10.20;;;;;;;-2.77;53.03;101037.97;6261470;23;20028;-85
2023/12/06 11:20:33;;;;;;;22.55;9.40;;;;;;;-2.67;52.92;101063.44;6239469;23;20000;-89
2023/12/06 11:22:59;;;;;;;22.05;10.18;;;;;;;-3.16;53.10;101005.03;6234478;23;20046;-87
2023/12/06 11:29:53;;;;;;;32.67;13.00;;;;;;;-3.29;53.28;100995.97;6266258;23;20030;-86
2023/12/06 11:32:44;;;;;;;45.80;18.70;;;;;;;-3.31;53.71;101063.84;6244757;22;20011;-90
2023/12/06 11:35:43;;;;;;;46.58;18.85;;;;;;;-4.21;54.50;100953.22;6192191;23;20024;-88
2023/12/06 11:42:53;;;;;;;47.67;21.63;;;;;;;-3.96;54.84;101010.84;6238733;23;20024;-87
2023/12/06 11:45:46;;;;;;;60.78;22.75;;;;;;;-3.65;54.97;101063.41;6215513;23;20027;-86
2023/12/06 11:48:29;;;;;;;56.08;22.77;;;;;;;-3.82;54.73;101044.81;6194896;23;20020;-88
2023/12/06 11:51:07;;;;;;;54.38;22.05;;;;;;;-4.09;54.71;101027.44;6222455;22;20025;-86
2023/12/06 11:53:37;;;;;;;53.05;22.58;;;;;;;-4.13;54.72;101018.13;6235436;23;20025;-85
2023/12/06 11:56:08;;;;;;;63.28;23.75;;;;;;;-4.30;54.94;100988.00;6206336;23;20009;-85
2023/12/06 11:58:35;;;;;;;65.18;23.63;;;;;;;-4.28;55.50;101003.81;6233866;23;20048;-86
2023/12/06 12:01:06;;;;;;;58.45;24.50;;;;;;;-3.95;55.53;101062.44;6195776;22;20034;-89
2023/12/06 12:03:38;;;;;;;53.08;23.15;;;;;;;-4.21;55.60;101030.66;6185382;23;20064;-85
2023/12/06 12:06:10;;;;;;;48.10;20.65;;;;;;;-4.62;55.27;100975.63;6175353;23;20031;-86
2023/12/06 12:08:44;;;;;;;52.67;22.23;;;;;;;-4.35;55.84;101032.22;6209333;23;20005;-90
2023/12/06 12:11:12;;;;;;;48.75;22.02;;;;;;;-4.72;55.73;100978.50;6208347;23;20021;-87
2023/12/06 12:14:09;;;;;;;49.15;19.23;;;;;;;-4.85;55.70;100966.69;6187265;23;20011;-89
2023/12/06 12:16:36;;;;;;;52.10;20.25;;;;;;;-4.62;55.64;101015.66;6155017;23;20017;-86
2023/12/06 12:19:08;;;;;;;51.25;20.02;;;;;;;-4.32;56.17;101080.78;6203381;23;20040;-86
2023/12/06 12:21:56;;;;;;;42.22;19.25;;;;;;;-4.43;55.92;101065.13;6157364;23;20028;-87
2023/12/06 12:24:24;;;;;;;50.65;20.02;;;;;;;-4.87;55.74;101011.38;6179364;23;20025;-87
2023/12/06 12:26:50;;;;;;;41.97;18.42;;;;;;;-5.01;55.69;101013.75;6091014;23;20090;-87
2023/12/06 12:29:19;;;;;;;44.08;20.08;;;;;;;-4.89;56.11;101051.56;6116080;23;20486;-86
2023/12/06 12:31:47;;;;;;;45.20;17.23;;;;;;;-4.70;56.06;101086.88;6119859;23;20022;-88
2023/12/06 12:34:37;;;;;;;39.45;16.83;;;;;;;-4.89;56.42;101078.25;6120184;23;20073;-90
2023/12/06 12:37:37;;;;;;;35.58;16.30;;;;;;;-4.86;56.42;101087.75;6126166;23;20010;-90
2023/12/06 12:40:13;;;;;;;38.05;16.98;;;;;;;-5.21;56.79;101055.09;6121115;23;20153;-90
2023/12/06 12:44:04;;;;;;;41.65;17.33;;;;;;;-4.95;56.76;101100.25;6065506;23;20033;-90
2023/12/06 12:55:50;;;;;;;58.60;24.92;;;;;;;-6.44;58.67;100983.03;6237349;22;20033;-90
2023/12/06 12:58:46;;;;;;;58.72;26.10;;;;;;;-6.40;59.21;101010.13;6191001;23;20001;-88
2023/12/06 13:19:26;;;;;;;51.45;21.15;;;;;;;-6.13;60.08;101067.63;6267608;22;20078;-88
2023/12/06 13:22:22;;;;;;;44.63;21.40;;;;;;;-5.59;59.38;101142.69;6196198;22;20016;-89
2023/12/06 13:25:08;;;;;;;52.22;21.20;;;;;;;-6.36;59.60;101021.28;6196774;23;20142;-87
2023/12/06 13:28:00;;;;;;;46.55;19.88;;;;;;;-5.57;59.51;101148.66;6220659;22;20028;-89
2023/12/06 13:31:16;;;;;;;48.10;19.73;;;;;;;-6.30;59.68;101034.78;6268327;23;20014;-88
2023/12/06 13:33:58;;;;;;;58.05;20.00;;;;;;;-5.49;59.69;101161.19;6123633;23;20025;-88
2023/12/06 13:51:01;;;;;;;40.35;17.58;;;;;;;-6.11;60.02;101065.63;6270308;22;20054;-87
2023/12/06 13:53:29;;;;;;;46.70;17.65;;;;;;;-5.42;60.21;101172.88;6246958;22;20000;-87
2023/12/06 14:03:33;;;;;;;47.78;18.83;;;;;;;-5.58;60.35;101111.53;6270403;23;20043;-87
2023/12/06 14:06:04;;;;;;;48.10;19.85;;;;;;;-5.72;60.11;101097.03;6219992;22;20035;-90
2023/12/06 14:16:48;;;;;;;41.67;18.02;;;;;;;-6.13;59.71;101021.53;6233087;23;20020;-87
2023/12/06 14:19:18;;;;;;;46.08;19.77;;;;;;;-5.30;60.28;101158.22;6221578;23;20130;-86
2023/12/06 14:29:18;;;;;;;65.00;19.58;;;;;;;-5.75;60.23;101122.16;6118025;23;20022;-88
2023/12/06 14:32:43;;;;;;;57.00;19.73;;;;;;;-5.40;60.15;101172.69;6052309;23;20026;-89
2023/12/06 14:46:58;;;;;;;51.28;19.73;;;;;;;-6.19;60.51;101102.84;6258496;22;20056;-89